KTHV Airport (York) Information

FAA: THV - ICAO: KTHV

KTHV Airport Location

State Pennsylvania
County York
City York
KTHV Airport is 7 miles southwest of York, PA.
Latitude 39-55-01.2000N
Longitude 076-52-22.9000W
Elevation 494ft

KTHV Airport METARs

METAR KTHV 181153Z AUTO VRB03KT 10SM OVC042 00/M07 A2987 RMK AO2 SLP122 60000 70001 T00001072 10006 20000 53034 $
Altimeter 29.87"
Temperature 0.0°C (32.0°F)
Wind 0° at 3KT
Clouds overcast at 4,200ft
Visibility 10.0mi
Time observed: 2022-01-18T11:53:00Z

KTHV Airport Details

Status Operational
Activation December 1940
Ownership Private
Usage Public
Chart WASHINGTON
ATC on-site No
Beacon schedule sunset-sunrise
Beacon color clear green

KTHV Airport Contacts

Owner YORK BLDG PRODUCTS INC
Owner address PO BOX 2587, YORK, PA 17405
Owner phone 717-792-5566
Manager RICHARD MCCARTY
Manager address 575 NORTH RIVER, WILKES-BARRE, PA 18764
Manager phone (570) 552-1359

KTHV Airport (York) Radio Frequencies

KTHV (Airport) Radio Frequencies

UNICOM 123
Common traffic advisory frequency (CTAF) 123